sensor_id;sensor_type;location;lat;lon;timestamp;P1;durP1;ratioP1;P2;durP2;ratioP2
3781;SDS011;6881;49.962;7.718;2024-03-22T00:00:27;15.87;;;8.27;;
3781;SDS011;6881;49.962;7.718;2024-03-22T00:02:52;16.17;;;8.00;;
3781;SDS011;6881;49.962;7.718;2024-03-22T00:05:18;11.37;;;6.00;;
3781;SDS011;6881;49.962;7.718;2024-03-22T00:07:43;14.57;;;8.70;;
3781;SDS011;6881;49.962;7.718;2024-03-22T00:10:08;15.73;;;7.70;;
3781;SDS011;6881;49.962;7.718;2024-03-22T00:12:34;14.23;;;7.87;;
3781;SDS011;6881;49.962;7.718;2024-03-22T00:14:59;14.33;;;7.70;;
3781;SDS011;6881;49.962;7.718;2024-03-22T00:17:24;9.90;;;7.00;;
3781;SDS011;6881;49.962;7.718;2024-03-22T00:19:50;16.33;;;8.20;;
3781;SDS011;6881;49.962;7.718;2024-03-22T00:22:15;14.17;;;7.27;;
3781;SDS011;6881;49.962;7.718;2024-03-22T00:24:40;15.20;;;8.10;;
3781;SDS011;6881;49.962;7.718;2024-03-22T00:27:06;14.50;;;8.23;;
3781;SDS011;6881;49.962;7.718;2024-03-22T00:29:31;14.77;;;7.17;;
3781;SDS011;6881;49.962;7.718;2024-03-22T00:31:57;14.60;;;8.00;;
3781;SDS011;6881;49.962;7.718;2024-03-22T00:34:22;15.80;;;8.80;;
3781;SDS011;6881;49.962;7.718;2024-03-22T00:36:47;15.07;;;8.50;;
3781;SDS011;6881;49.962;7.718;2024-03-22T00:39:13;17.57;;;8.90;;
3781;SDS011;6881;49.962;7.718;2024-03-22T00:41:38;17.70;;;9.23;;
3781;SDS011;6881;49.962;7.718;2024-03-22T00:44:04;25.63;;;10.53;;
3781;SDS011;6881;49.962;7.718;2024-03-22T00:46:29;14.83;;;9.20;;
3781;SDS011;6881;49.962;7.718;2024-03-22T00:48:54;18.53;;;10.47;;
3781;SDS011;6881;49.962;7.718;2024-03-22T00:51:20;18.23;;;9.73;;
3781;SDS011;6881;49.962;7.718;2024-03-22T00:53:45;18.97;;;10.30;;
3781;SDS011;6881;49.962;7.718;2024-03-22T00:56:10;21.50;;;10.53;;
3781;SDS011;6881;49.962;7.718;2024-03-22T00:58:36;15.70;;;9.30;;
3781;SDS011;6881;49.962;7.718;2024-03-22T01:01:01;18.77;;;10.17;;
3781;SDS011;6881;49.962;7.718;2024-03-22T01:03:28;17.70;;;9.10;;
3781;SDS011;6881;49.962;7.718;2024-03-22T01:05:53;20.57;;;10.50;;
3781;SDS011;6881;49.962;7.718;2024-03-22T01:08:19;19.50;;;10.13;;
3781;SDS011;6881;49.962;7.718;2024-03-22T01:10:44;17.83;;;9.83;;
3781;SDS011;6881;49.962;7.718;2024-03-22T01:13:10;19.53;;;8.97;;
3781;SDS011;6881;49.962;7.718;2024-03-22T01:15:35;21.67;;;9.73;;
3781;SDS011;6881;49.962;7.718;2024-03-22T01:18:00;16.07;;;8.13;;
3781;SDS011;6881;49.962;7.718;2024-03-22T01:20:26;18.80;;;9.00;;
3781;SDS011;6881;49.962;7.718;2024-03-22T01:22:51;12.57;;;7.40;;
3781;SDS011;6881;49.962;7.718;2024-03-22T01:25:16;14.57;;;8.93;;
3781;SDS011;6881;49.962;7.718;2024-03-22T01:27:42;19.13;;;9.07;;
3781;SDS011;6881;49.962;7.718;2024-03-22T01:30:07;18.13;;;9.70;;
3781;SDS011;6881;49.962;7.718;2024-03-22T01:32:34;15.67;;;9.03;;
3781;SDS011;6881;49.962;7.718;2024-03-22T01:35:00;15.80;;;8.67;;
3781;SDS011;6881;49.962;7.718;2024-03-22T01:37:25;15.87;;;9.47;;
3781;SDS011;6881;49.962;7.718;2024-03-22T01:39:50;14.77;;;8.90;;
3781;SDS011;6881;49.962;7.718;2024-03-22T01:42:16;15.07;;;7.60;;
3781;SDS011;6881;49.962;7.718;2024-03-22T01:44:41;16.63;;;8.83;;
3781;SDS011;6881;49.962;7.718;2024-03-22T01:47:06;16.57;;;7.57;;
3781;SDS011;6881;49.962;7.718;2024-03-22T01:49:32;16.60;;;9.37;;
3781;SDS011;6881;49.962;7.718;2024-03-22T01:51:57;16.40;;;8.57;;
3781;SDS011;6881;49.962;7.718;2024-03-22T01:54:22;14.03;;;8.10;;
3781;SDS011;6881;49.962;7.718;2024-03-22T01:56:48;13.73;;;8.50;;
3781;SDS011;6881;49.962;7.718;2024-03-22T01:59:13;16.60;;;8.30;;
3781;SDS011;6881;49.962;7.718;2024-03-22T02:01:39;15.97;;;8.70;;
3781;SDS011;6881;49.962;7.718;2024-03-22T02:04:04;13.77;;;9.53;;
3781;SDS011;6881;49.962;7.718;2024-03-22T02:06:30;13.00;;;8.37;;
3781;SDS011;6881;49.962;7.718;2024-03-22T02:08:56;13.37;;;8.43;;
3781;SDS011;6881;49.962;7.718;2024-03-22T02:11:22;13.67;;;8.03;;
3781;SDS011;6881;49.962;7.718;2024-03-22T02:13:47;12.77;;;8.23;;
3781;SDS011;6881;49.962;7.718;2024-03-22T02:16:13;14.23;;;8.47;;
3781;SDS011;6881;49.962;7.718;2024-03-22T02:18:38;17.50;;;8.87;;
3781;SDS011;6881;49.962;7.718;2024-03-22T02:21:04;12.80;;;6.93;;
3781;SDS011;6881;49.962;7.718;2024-03-22T02:23:32;14.63;;;8.03;;
3781;SDS011;6881;49.962;7.718;2024-03-22T02:26:02;15.83;;;8.80;;
3781;SDS011;6881;49.962;7.718;2024-03-22T02:28:27;13.60;;;7.67;;
3781;SDS011;6881;49.962;7.718;2024-03-22T02:30:53;10.33;;;6.90;;
3781;SDS011;6881;49.962;7.718;2024-03-22T02:33:18;13.67;;;8.37;;
3781;SDS011;6881;49.962;7.718;2024-03-22T02:35:46;13.97;;;7.83;;
3781;SDS011;6881;49.962;7.718;2024-03-22T02:38:11;13.00;;;7.60;;
3781;SDS011;6881;49.962;7.718;2024-03-22T02:40:36;14.43;;;6.80;;
3781;SDS011;6881;49.962;7.718;2024-03-22T02:43:02;12.07;;;7.10;;
3781;SDS011;6881;49.962;7.718;2024-03-22T02:45:27;10.27;;;7.17;;
3781;SDS011;6881;49.962;7.718;2024-03-22T02:47:52;10.57;;;6.30;;
3781;SDS011;6881;49.962;7.718;2024-03-22T02:50:18;10.10;;;6.47;;
3781;SDS011;6881;49.962;7.718;2024-03-22T02:52:43;10.40;;;6.70;;
3781;SDS011;6881;49.962;7.718;2024-03-22T02:55:08;13.77;;;7.20;;
3781;SDS011;6881;49.962;7.718;2024-03-22T02:57:34;10.60;;;6.23;;
3781;SDS011;6881;49.962;7.718;2024-03-22T03:00:02;12.10;;;7.00;;
3781;SDS011;6881;49.962;7.718;2024-03-22T03:02:28;13.93;;;6.60;;
3781;SDS011;6881;49.962;7.718;2024-03-22T03:04:53;15.37;;;7.50;;
3781;SDS011;6881;49.962;7.718;2024-03-22T03:07:19;11.87;;;6.63;;
3781;SDS011;6881;49.962;7.718;2024-03-22T03:09:44;11.53;;;6.33;;
3781;SDS011;6881;49.962;7.718;2024-03-22T03:12:09;14.00;;;6.77;;
3781;SDS011;6881;49.962;7.718;2024-03-22T03:14:35;12.07;;;6.47;;
3781;SDS011;6881;49.962;7.718;2024-03-22T03:17:00;14.00;;;6.20;;
3781;SDS011;6881;49.962;7.718;2024-03-22T03:19:25;14.23;;;6.57;;
3781;SDS011;6881;49.962;7.718;2024-03-22T03:21:51;10.17;;;5.43;;
3781;SDS011;6881;49.962;7.718;2024-03-22T03:24:16;10.23;;;6.03;;
3781;SDS011;6881;49.962;7.718;2024-03-22T03:26:41;12.37;;;5.83;;
3781;SDS011;6881;49.962;7.718;2024-03-22T03:29:06;9.77;;;6.17;;
3781;SDS011;6881;49.962;7.718;2024-03-22T03:31:32;11.70;;;7.67;;
3781;SDS011;6881;49.962;7.718;2024-03-22T03:33:57;9.93;;;6.50;;
3781;SDS011;6881;49.962;7.718;2024-03-22T03:36:22;11.00;;;5.80;;
3781;SDS011;6881;49.962;7.718;2024-03-22T03:38:48;8.40;;;5.27;;
3781;SDS011;6881;49.962;7.718;2024-03-22T03:41:13;12.83;;;6.60;;
3781;SDS011;6881;49.962;7.718;2024-03-22T03:43:38;9.57;;;5.80;;
3781;SDS011;6881;49.962;7.718;2024-03-22T03:46:03;7.67;;;5.20;;
3781;SDS011;6881;49.962;7.718;2024-03-22T03:48:29;7.67;;;5.40;;
3781;SDS011;6881;49.962;7.718;2024-03-22T03:50:54;9.27;;;5.37;;
3781;SDS011;6881;49.962;7.718;2024-03-22T03:53:24;13.50;;;6.37;;
3781;SDS011;6881;49.962;7.718;2024-03-22T03:55:49;9.97;;;5.33;;
3781;SDS011;6881;49.962;7.718;2024-03-22T03:58:14;7.43;;;4.77;;
3781;SDS011;6881;49.962;7.718;2024-03-22T04:00:41;7.53;;;4.90;;
3781;SDS011;6881;49.962;7.718;2024-03-22T04:03:06;9.07;;;4.07;;
3781;SDS011;6881;49.962;7.718;2024-03-22T04:05:31;9.83;;;4.20;;
3781;SDS011;6881;49.962;7.718;2024-03-22T04:07:56;7.90;;;3.83;;
3781;SDS011;6881;49.962;7.718;2024-03-22T04:10:22;8.03;;;3.97;;
3781;SDS011;6881;49.962;7.718;2024-03-22T04:12:47;6.23;;;3.53;;
3781;SDS011;6881;49.962;7.718;2024-03-22T04:15:12;7.20;;;4.00;;
3781;SDS011;6881;49.962;7.718;2024-03-22T04:17:38;6.37;;;3.17;;
3781;SDS011;6881;49.962;7.718;2024-03-22T04:20:03;5.00;;;3.07;;
3781;SDS011;6881;49.962;7.718;2024-03-22T04:22:29;6.07;;;3.67;;
3781;SDS011;6881;49.962;7.718;2024-03-22T04:24:54;6.50;;;4.07;;
3781;SDS011;6881;49.962;7.718;2024-03-22T04:27:20;5.13;;;2.53;;
3781;SDS011;6881;49.962;7.718;2024-03-22T04:29:48;4.07;;;3.33;;
3781;SDS011;6881;49.962;7.718;2024-03-22T04:32:13;6.13;;;2.63;;
3781;SDS011;6881;49.962;7.718;2024-03-22T04:34:41;3.00;;;2.33;;
3781;SDS011;6881;49.962;7.718;2024-03-22T04:37:07;3.73;;;2.40;;
3781;SDS011;6881;49.962;7.718;2024-03-22T04:39:33;3.20;;;2.33;;
3781;SDS011;6881;49.962;7.718;2024-03-22T04:41:58;3.30;;;2.10;;
3781;SDS011;6881;49.962;7.718;2024-03-22T04:44:23;3.67;;;1.80;;
3781;SDS011;6881;49.962;7.718;2024-03-22T04:46:50;3.53;;;2.20;;
3781;SDS011;6881;49.962;7.718;2024-03-22T04:49:15;2.63;;;1.70;;
3781;SDS011;6881;49.962;7.718;2024-03-22T04:51:40;3.63;;;2.10;;
3781;SDS011;6881;49.962;7.718;2024-03-22T04:54:06;3.20;;;1.77;;
3781;SDS011;6881;49.962;7.718;2024-03-22T04:56:31;3.10;;;1.70;;
3781;SDS011;6881;49.962;7.718;2024-03-22T04:58:57;3.30;;;1.80;;
3781;SDS011;6881;49.962;7.718;2024-03-22T05:01:22;4.40;;;3.53;;
3781;SDS011;6881;49.962;7.718;2024-03-22T05:03:48;4.67;;;3.00;;
3781;SDS011;6881;49.962;7.718;2024-03-22T05:06:14;3.57;;;2.70;;
3781;SDS011;6881;49.962;7.718;2024-03-22T05:08:39;5.30;;;2.30;;
3781;SDS011;6881;49.962;7.718;2024-03-22T05:11:06;2.47;;;2.27;;
3781;SDS011;6881;49.962;7.718;2024-03-22T05:13:32;2.33;;;2.13;;
3781;SDS011;6881;49.962;7.718;2024-03-22T05:15:57;3.30;;;2.70;;
3781;SDS011;6881;49.962;7.718;2024-03-22T05:18:22;3.60;;;3.30;;
3781;SDS011;6881;49.962;7.718;2024-03-22T05:20:48;5.50;;;4.17;;
3781;SDS011;6881;49.962;7.718;2024-03-22T05:23:13;14.87;;;13.67;;
3781;SDS011;6881;49.962;7.718;2024-03-22T05:25:41;8.10;;;7.30;;
3781;SDS011;6881;49.962;7.718;2024-03-22T05:28:06;5.57;;;4.50;;
3781;SDS011;6881;49.962;7.718;2024-03-22T05:30:32;4.33;;;3.27;;
3781;SDS011;6881;49.962;7.718;2024-03-22T05:32:57;4.00;;;2.27;;
3781;SDS011;6881;49.962;7.718;2024-03-22T05:35:23;2.80;;;2.20;;
3781;SDS011;6881;49.962;7.718;2024-03-22T05:37:48;3.27;;;1.73;;
3781;SDS011;6881;49.962;7.718;2024-03-22T05:40:14;3.57;;;3.27;;
3781;SDS011;6881;49.962;7.718;2024-03-22T05:42:40;2.63;;;2.43;;
3781;SDS011;6881;49.962;7.718;2024-03-22T05:45:05;4.23;;;2.50;;
3781;SDS011;6881;49.962;7.718;2024-03-22T05:47:31;4.87;;;4.47;;
3781;SDS011;6881;49.962;7.718;2024-03-22T05:49:56;4.93;;;4.53;;
3781;SDS011;6881;49.962;7.718;2024-03-22T05:52:21;3.40;;;2.40;;
3781;SDS011;6881;49.962;7.718;2024-03-22T05:54:47;5.03;;;2.97;;
3781;SDS011;6881;49.962;7.718;2024-03-22T05:57:13;3.77;;;2.83;;
3781;SDS011;6881;49.962;7.718;2024-03-22T05:59:38;4.77;;;2.77;;
3781;SDS011;6881;49.962;7.718;2024-03-22T06:02:04;3.40;;;2.17;;
3781;SDS011;6881;49.962;7.718;2024-03-22T06:04:29;4.17;;;2.13;;
3781;SDS011;6881;49.962;7.718;2024-03-22T06:06:55;2.23;;;1.90;;
3781;SDS011;6881;49.962;7.718;2024-03-22T06:09:20;3.63;;;2.00;;
3781;SDS011;6881;49.962;7.718;2024-03-22T06:12:12;1.83;;;1.23;;
3781;SDS011;6881;49.962;7.718;2024-03-22T06:14:38;2.90;;;1.17;;
3781;SDS011;6881;49.962;7.718;2024-03-22T06:17:04;3.13;;;1.90;;
3781;SDS011;6881;49.962;7.718;2024-03-22T06:19:30;2.17;;;1.33;;
3781;SDS011;6881;49.962;7.718;2024-03-22T06:21:55;2.30;;;1.30;;
3781;SDS011;6881;49.962;7.718;2024-03-22T06:24:21;2.00;;;1.43;;
3781;SDS011;6881;49.962;7.718;2024-03-22T06:26:46;3.73;;;1.80;;
3781;SDS011;6881;49.962;7.718;2024-03-22T06:29:11;2.60;;;1.73;;
3781;SDS011;6881;49.962;7.718;2024-03-22T06:31:37;2.10;;;1.50;;
3781;SDS011;6881;49.962;7.718;2024-03-22T06:34:02;3.60;;;2.90;;
3781;SDS011;6881;49.962;7.718;2024-03-22T06:36:28;4.40;;;2.60;;
3781;SDS011;6881;49.962;7.718;2024-03-22T06:38:55;2.50;;;2.30;;
3781;SDS011;6881;49.962;7.718;2024-03-22T06:41:21;4.20;;;2.83;;
3781;SDS011;6881;49.962;7.718;2024-03-22T06:43:47;6.20;;;2.60;;
3781;SDS011;6881;49.962;7.718;2024-03-22T06:46:12;3.47;;;2.37;;
3781;SDS011;6881;49.962;7.718;2024-03-22T06:48:37;4.53;;;2.47;;
3781;SDS011;6881;49.962;7.718;2024-03-22T06:51:03;3.60;;;1.90;;
3781;SDS011;6881;49.962;7.718;2024-03-22T06:53:28;2.30;;;2.10;;
3781;SDS011;6881;49.962;7.718;2024-03-22T06:55:53;2.50;;;2.30;;
3781;SDS011;6881;49.962;7.718;2024-03-22T06:58:19;4.63;;;2.10;;
3781;SDS011;6881;49.962;7.718;2024-03-22T07:00:44;2.67;;;1.77;;
3781;SDS011;6881;49.962;7.718;2024-03-22T07:03:09;2.93;;;2.33;;
3781;SDS011;6881;49.962;7.718;2024-03-22T07:05:35;2.53;;;1.90;;
3781;SDS011;6881;49.962;7.718;2024-03-22T07:08:00;2.10;;;1.50;;
3781;SDS011;6881;49.962;7.718;2024-03-22T07:10:25;2.43;;;1.90;;
3781;SDS011;6881;49.962;7.718;2024-03-22T07:12:55;2.23;;;1.93;;
3781;SDS011;6881;49.962;7.718;2024-03-22T07:15:23;3.63;;;1.70;;
3781;SDS011;6881;49.962;7.718;2024-03-22T07:17:49;2.50;;;1.90;;
3781;SDS011;6881;49.962;7.718;2024-03-22T07:20:15;3.73;;;2.33;;
3781;SDS011;6881;49.962;7.718;2024-03-22T07:22:40;2.83;;;1.83;;
3781;SDS011;6881;49.962;7.718;2024-03-22T07:25:06;2.70;;;1.87;;
3781;SDS011;6881;49.962;7.718;2024-03-22T07:27:31;3.27;;;2.43;;
3781;SDS011;6881;49.962;7.718;2024-03-22T07:29:57;4.30;;;3.20;;
3781;SDS011;6881;49.962;7.718;2024-03-22T07:32:22;2.23;;;2.03;;
3781;SDS011;6881;49.962;7.718;2024-03-22T07:34:48;4.40;;;2.17;;
3781;SDS011;6881;49.962;7.718;2024-03-22T07:37:13;1.90;;;1.70;;
3781;SDS011;6881;49.962;7.718;2024-03-22T07:39:38;2.40;;;1.83;;
3781;SDS011;6881;49.962;7.718;2024-03-22T07:42:04;3.03;;;2.07;;
3781;SDS011;6881;49.962;7.718;2024-03-22T07:44:29;2.80;;;1.90;;
3781;SDS011;6881;49.962;7.718;2024-03-22T07:46:55;2.23;;;1.60;;
3781;SDS011;6881;49.962;7.718;2024-03-22T07:49:20;4.70;;;2.97;;
3781;SDS011;6881;49.962;7.718;2024-03-22T07:51:45;2.60;;;2.00;;
3781;SDS011;6881;49.962;7.718;2024-03-22T07:54:11;3.17;;;1.73;;
3781;SDS011;6881;49.962;7.718;2024-03-22T07:56:36;3.67;;;2.50;;
3781;SDS011;6881;49.962;7.718;2024-03-22T07:59:01;2.83;;;2.57;;
3781;SDS011;6881;49.962;7.718;2024-03-22T08:01:27;3.00;;;2.27;;
3781;SDS011;6881;49.962;7.718;2024-03-22T08:03:53;2.83;;;2.50;;
3781;SDS011;6881;49.962;7.718;2024-03-22T08:06:18;5.53;;;2.63;;
3781;SDS011;6881;49.962;7.718;2024-03-22T08:08:44;5.43;;;2.73;;
3781;SDS011;6881;49.962;7.718;2024-03-22T08:11:10;2.50;;;2.30;;
3781;SDS011;6881;49.962;7.718;2024-03-22T08:13:35;2.90;;;2.37;;
3781;SDS011;6881;49.962;7.718;2024-03-22T08:16:01;4.90;;;3.10;;
3781;SDS011;6881;49.962;7.718;2024-03-22T08:18:26;5.60;;;3.07;;
3781;SDS011;6881;49.962;7.718;2024-03-22T08:20:51;4.10;;;2.30;;
3781;SDS011;6881;49.962;7.718;2024-03-22T08:23:16;5.50;;;3.43;;
3781;SDS011;6881;49.962;7.718;2024-03-22T08:25:45;4.30;;;3.40;;
3781;SDS011;6881;49.962;7.718;2024-03-22T08:28:10;6.10;;;2.93;;
3781;SDS011;6881;49.962;7.718;2024-03-22T08:30:37;5.00;;;3.40;;
3781;SDS011;6881;49.962;7.718;2024-03-22T08:33:02;6.90;;;2.70;;
3781;SDS011;6881;49.962;7.718;2024-03-22T08:35:29;3.87;;;2.90;;
3781;SDS011;6881;49.962;7.718;2024-03-22T08:37:54;5.40;;;3.10;;
3781;SDS011;6881;49.962;7.718;2024-03-22T08:40:19;5.60;;;3.47;;
3781;SDS011;6881;49.962;7.718;2024-03-22T08:42:45;4.57;;;3.70;;
3781;SDS011;6881;49.962;7.718;2024-03-22T08:45:10;4.83;;;4.33;;
3781;SDS011;6881;49.962;7.718;2024-03-22T08:47:35;7.30;;;5.40;;
3781;SDS011;6881;49.962;7.718;2024-03-22T08:50:00;9.23;;;4.50;;
3781;SDS011;6881;49.962;7.718;2024-03-22T08:52:26;11.30;;;5.33;;
3781;SDS011;6881;49.962;7.718;2024-03-22T08:54:52;10.40;;;5.13;;
3781;SDS011;6881;49.962;7.718;2024-03-22T08:57:18;7.50;;;5.37;;
3781;SDS011;6881;49.962;7.718;2024-03-22T08:59:44;8.53;;;4.47;;
3781;SDS011;6881;49.962;7.718;2024-03-22T09:02:09;6.33;;;4.90;;
3781;SDS011;6881;49.962;7.718;2024-03-22T09:04:36;6.80;;;5.03;;
3781;SDS011;6881;49.962;7.718;2024-03-22T09:07:01;9.00;;;5.87;;
3781;SDS011;6881;49.962;7.718;2024-03-22T09:09:27;8.00;;;5.90;;
3781;SDS011;6881;49.962;7.718;2024-03-22T09:11:52;9.77;;;6.07;;
3781;SDS011;6881;49.962;7.718;2024-03-22T09:14:17;9.30;;;7.00;;
3781;SDS011;6881;49.962;7.718;2024-03-22T09:16:43;7.53;;;5.83;;
3781;SDS011;6881;49.962;7.718;2024-03-22T09:19:08;7.97;;;7.10;;
3781;SDS011;6881;49.962;7.718;2024-03-22T09:21:35;10.30;;;7.70;;
3781;SDS011;6881;49.962;7.718;2024-03-22T09:24:01;10.33;;;7.50;;
3781;SDS011;6881;49.962;7.718;2024-03-22T09:26:28;13.37;;;8.60;;
3781;SDS011;6881;49.962;7.718;2024-03-22T09:28:53;10.73;;;8.30;;
3781;SDS011;6881;49.962;7.718;2024-03-22T09:31:19;15.00;;;8.30;;
3781;SDS011;6881;49.962;7.718;2024-03-22T09:33:44;10.50;;;9.10;;
3781;SDS011;6881;49.962;7.718;2024-03-22T09:36:10;10.63;;;8.57;;
3781;SDS011;6881;49.962;7.718;2024-03-22T09:38:35;13.10;;;9.20;;
3781;SDS011;6881;49.962;7.718;2024-03-22T09:41:01;10.90;;;9.37;;
3781;SDS011;6881;49.962;7.718;2024-03-22T09:43:27;11.07;;;8.70;;
3781;SDS011;6881;49.962;7.718;2024-03-22T09:45:54;13.20;;;8.77;;
3781;SDS011;6881;49.962;7.718;2024-03-22T09:48:20;12.47;;;8.73;;
3781;SDS011;6881;49.962;7.718;2024-03-22T09:50:45;11.30;;;8.40;;
3781;SDS011;6881;49.962;7.718;2024-03-22T09:53:11;15.03;;;8.67;;
3781;SDS011;6881;49.962;7.718;2024-03-22T09:55:37;13.53;;;8.50;;
3781;SDS011;6881;49.962;7.718;2024-03-22T09:58:04;12.10;;;8.37;;
3781;SDS011;6881;49.962;7.718;2024-03-22T10:00:30;11.13;;;8.10;;
3781;SDS011;6881;49.962;7.718;2024-03-22T10:02:56;12.13;;;9.93;;
3781;SDS011;6881;49.962;7.718;2024-03-22T10:05:21;12.63;;;9.90;;
3781;SDS011;6881;49.962;7.718;2024-03-22T10:07:47;12.27;;;10.10;;
3781;SDS011;6881;49.962;7.718;2024-03-22T10:10:12;13.50;;;10.10;;
3781;SDS011;6881;49.962;7.718;2024-03-22T10:12:39;14.33;;;11.20;;
3781;SDS011;6881;49.962;7.718;2024-03-22T10:15:04;12.23;;;9.60;;
3781;SDS011;6881;49.962;7.718;2024-03-22T10:17:31;13.80;;;10.40;;
3781;SDS011;6881;49.962;7.718;2024-03-22T10:19:56;12.90;;;10.40;;
3781;SDS011;6881;49.962;7.718;2024-03-22T10:22:21;12.70;;;10.77;;
3781;SDS011;6881;49.962;7.718;2024-03-22T10:24:47;12.57;;;9.80;;
3781;SDS011;6881;49.962;7.718;2024-03-22T10:27:12;13.57;;;10.00;;
3781;SDS011;6881;49.962;7.718;2024-03-22T10:29:38;12.87;;;9.63;;
3781;SDS011;6881;49.962;7.718;2024-03-22T10:32:04;12.23;;;9.83;;
3781;SDS011;6881;49.962;7.718;2024-03-22T10:34:30;15.60;;;11.30;;
3781;SDS011;6881;49.962;7.718;2024-03-22T10:36:56;11.20;;;9.70;;
3781;SDS011;6881;49.962;7.718;2024-03-22T10:39:25;13.37;;;10.77;;
3781;SDS011;6881;49.962;7.718;2024-03-22T10:41:51;12.10;;;10.80;;
3781;SDS011;6881;49.962;7.718;2024-03-22T10:44:16;11.50;;;9.63;;
3781;SDS011;6881;49.962;7.718;2024-03-22T10:46:45;10.67;;;8.83;;
3781;SDS011;6881;49.962;7.718;2024-03-22T10:49:16;14.53;;;8.83;;
3781;SDS011;6881;49.962;7.718;2024-03-22T10:51:44;13.70;;;11.57;;
3781;SDS011;6881;49.962;7.718;2024-03-22T10:54:12;12.23;;;10.57;;
3781;SDS011;6881;49.962;7.718;2024-03-22T10:56:40;10.73;;;9.63;;
3781;SDS011;6881;49.962;7.718;2024-03-22T10:59:05;13.37;;;11.90;;
3781;SDS011;6881;49.962;7.718;2024-03-22T11:01:31;13.37;;;11.37;;
3781;SDS011;6881;49.962;7.718;2024-03-22T11:04:04;19.57;;;16.70;;
3781;SDS011;6881;49.962;7.718;2024-03-22T11:06:36;16.33;;;13.07;;
3781;SDS011;6881;49.962;7.718;2024-03-22T11:09:01;11.70;;;10.33;;
3781;SDS011;6881;49.962;7.718;2024-03-22T11:11:30;12.73;;;11.40;;
3781;SDS011;6881;49.962;7.718;2024-03-22T11:14:02;17.90;;;15.60;;
3781;SDS011;6881;49.962;7.718;2024-03-22T11:16:28;16.00;;;12.50;;
3781;SDS011;6881;49.962;7.718;2024-03-22T11:18:53;15.67;;;12.83;;
3781;SDS011;6881;49.962;7.718;2024-03-22T11:21:19;15.07;;;13.47;;
3781;SDS011;6881;49.962;7.718;2024-03-22T11:23:45;13.50;;;11.10;;
3781;SDS011;6881;49.962;7.718;2024-03-22T11:26:10;17.50;;;12.37;;
3781;SDS011;6881;49.962;7.718;2024-03-22T11:28:36;25.07;;;18.93;;
3781;SDS011;6881;49.962;7.718;2024-03-22T11:31:01;17.03;;;15.23;;
3781;SDS011;6881;49.962;7.718;2024-03-22T11:33:26;17.03;;;12.23;;
3781;SDS011;6881;49.962;7.718;2024-03-22T11:35:52;21.50;;;14.63;;
3781;SDS011;6881;49.962;7.718;2024-03-22T11:38:18;17.70;;;15.90;;
3781;SDS011;6881;49.962;7.718;2024-03-22T11:40:43;16.80;;;13.53;;
3781;SDS011;6881;49.962;7.718;2024-03-22T11:43:09;16.10;;;13.10;;
3781;SDS011;6881;49.962;7.718;2024-03-22T11:45:35;15.87;;;12.93;;
3781;SDS011;6881;49.962;7.718;2024-03-22T11:48:02;23.00;;;20.30;;
3781;SDS011;6881;49.962;7.718;2024-03-22T11:50:28;17.90;;;12.93;;
3781;SDS011;6881;49.962;7.718;2024-03-22T11:52:53;17.20;;;12.73;;
3781;SDS011;6881;49.962;7.718;2024-03-22T11:55:19;17.83;;;11.07;;
3781;SDS011;6881;49.962;7.718;2024-03-22T11:57:47;22.60;;;18.60;;
3781;SDS011;6881;49.962;7.718;2024-03-22T12:00:14;21.37;;;15.67;;
3781;SDS011;6881;49.962;7.718;2024-03-22T12:02:40;17.20;;;13.97;;
3781;SDS011;6881;49.962;7.718;2024-03-22T12:05:06;19.47;;;14.73;;
3781;SDS011;6881;49.962;7.718;2024-03-22T12:07:32;15.97;;;14.20;;
3781;SDS011;6881;49.962;7.718;2024-03-22T12:09:58;17.50;;;11.83;;
3781;SDS011;6881;49.962;7.718;2024-03-22T12:12:23;16.03;;;12.20;;
3781;SDS011;6881;49.962;7.718;2024-03-22T12:14:48;16.20;;;13.10;;
3781;SDS011;6881;49.962;7.718;2024-03-22T12:17:16;16.50;;;13.20;;
3781;SDS011;6881;49.962;7.718;2024-03-22T12:19:41;14.70;;;11.17;;
3781;SDS011;6881;49.962;7.718;2024-03-22T12:22:06;16.40;;;11.70;;
3781;SDS011;6881;49.962;7.718;2024-03-22T12:24:32;13.87;;;11.53;;
3781;SDS011;6881;49.962;7.718;2024-03-22T12:26:57;12.70;;;11.40;;
3781;SDS011;6881;49.962;7.718;2024-03-22T12:29:22;15.53;;;13.93;;
3781;SDS011;6881;49.962;7.718;2024-03-22T12:31:48;29.13;;;22.00;;
3781;SDS011;6881;49.962;7.718;2024-03-22T12:34:14;22.83;;;18.00;;
3781;SDS011;6881;49.962;7.718;2024-03-22T12:36:39;16.10;;;13.03;;
3781;SDS011;6881;49.962;7.718;2024-03-22T12:39:04;16.10;;;11.50;;
3781;SDS011;6881;49.962;7.718;2024-03-22T12:41:30;16.40;;;12.93;;
3781;SDS011;6881;49.962;7.718;2024-03-22T12:43:56;15.30;;;12.37;;
3781;SDS011;6881;49.962;7.718;2024-03-22T12:46:22;16.07;;;12.03;;
3781;SDS011;6881;49.962;7.718;2024-03-22T12:48:47;25.70;;;19.13;;
3781;SDS011;6881;49.962;7.718;2024-03-22T12:51:12;21.40;;;16.60;;
3781;SDS011;6881;49.962;7.718;2024-03-22T12:53:38;22.60;;;14.70;;
3781;SDS011;6881;49.962;7.718;2024-03-22T12:56:03;18.40;;;15.97;;
3781;SDS011;6881;49.962;7.718;2024-03-22T12:58:29;22.80;;;16.43;;
3781;SDS011;6881;49.962;7.718;2024-03-22T13:00:55;23.73;;;17.50;;
3781;SDS011;6881;49.962;7.718;2024-03-22T13:03:20;21.97;;;15.47;;
3781;SDS011;6881;49.962;7.718;2024-03-22T13:05:45;23.37;;;16.20;;
3781;SDS011;6881;49.962;7.718;2024-03-22T13:08:11;21.37;;;15.60;;
3781;SDS011;6881;49.962;7.718;2024-03-22T13:10:36;16.60;;;14.37;;
3781;SDS011;6881;49.962;7.718;2024-03-22T13:13:01;22.97;;;16.27;;
3781;SDS011;6881;49.962;7.718;2024-03-22T13:15:27;20.37;;;15.27;;
3781;SDS011;6881;49.962;7.718;2024-03-22T13:17:52;20.13;;;15.33;;
3781;SDS011;6881;49.962;7.718;2024-03-22T13:20:17;20.73;;;14.73;;
3781;SDS011;6881;49.962;7.718;2024-03-22T13:22:43;23.83;;;15.47;;
3781;SDS011;6881;49.962;7.718;2024-03-22T13:25:09;20.50;;;16.97;;
3781;SDS011;6881;49.962;7.718;2024-03-22T13:27:35;23.47;;;15.33;;
3781;SDS011;6881;49.962;7.718;2024-03-22T13:30:01;18.40;;;14.70;;
3781;SDS011;6881;49.962;7.718;2024-03-22T13:32:27;23.10;;;16.50;;
3781;SDS011;6881;49.962;7.718;2024-03-22T13:34:52;19.50;;;14.30;;
3781;SDS011;6881;49.962;7.718;2024-03-22T13:37:17;22.50;;;15.93;;
3781;SDS011;6881;49.962;7.718;2024-03-22T13:39:42;21.00;;;15.60;;
3781;SDS011;6881;49.962;7.718;2024-03-22T13:42:08;19.40;;;15.87;;
3781;SDS011;6881;49.962;7.718;2024-03-22T13:44:34;18.40;;;14.13;;
3781;SDS011;6881;49.962;7.718;2024-03-22T13:46:59;18.50;;;13.97;;
3781;SDS011;6881;49.962;7.718;2024-03-22T13:49:25;19.53;;;13.60;;
3781;SDS011;6881;49.962;7.718;2024-03-22T13:51:50;16.27;;;13.03;;
3781;SDS011;6881;49.962;7.718;2024-03-22T13:54:15;14.40;;;12.97;;
3781;SDS011;6881;49.962;7.718;2024-03-22T13:56:41;18.77;;;13.63;;
3781;SDS011;6881;49.962;7.718;2024-03-22T13:59:06;18.23;;;13.70;;
3781;SDS011;6881;49.962;7.718;2024-03-22T14:01:33;16.47;;;12.90;;
3781;SDS011;6881;49.962;7.718;2024-03-22T14:04:03;18.43;;;12.53;;
3781;SDS011;6881;49.962;7.718;2024-03-22T14:06:30;17.97;;;13.90;;
3781;SDS011;6881;49.962;7.718;2024-03-22T14:08:55;16.93;;;12.53;;
3781;SDS011;6881;49.962;7.718;2024-03-22T14:11:25;17.33;;;13.90;;
3781;SDS011;6881;49.962;7.718;2024-03-22T14:13:51;19.90;;;12.87;;
3781;SDS011;6881;49.962;7.718;2024-03-22T14:16:16;16.57;;;11.87;;
3781;SDS011;6881;49.962;7.718;2024-03-22T14:18:42;17.77;;;12.93;;
3781;SDS011;6881;49.962;7.718;2024-03-22T14:21:07;15.40;;;11.67;;
3781;SDS011;6881;49.962;7.718;2024-03-22T14:23:32;14.70;;;10.63;;
3781;SDS011;6881;49.962;7.718;2024-03-22T14:25:57;15.83;;;12.77;;
3781;SDS011;6881;49.962;7.718;2024-03-22T14:28:23;14.73;;;11.30;;
3781;SDS011;6881;49.962;7.718;2024-03-22T14:30:48;16.73;;;12.37;;
3781;SDS011;6881;49.962;7.718;2024-03-22T14:33:13;14.60;;;11.80;;
3781;SDS011;6881;49.962;7.718;2024-03-22T14:35:39;14.47;;;10.83;;
3781;SDS011;6881;49.962;7.718;2024-03-22T14:38:04;13.37;;;10.80;;
3781;SDS011;6881;49.962;7.718;2024-03-22T14:40:29;14.73;;;10.83;;
3781;SDS011;6881;49.962;7.718;2024-03-22T14:42:56;16.53;;;10.40;;
3781;SDS011;6881;49.962;7.718;2024-03-22T14:45:22;13.23;;;10.73;;
3781;SDS011;6881;49.962;7.718;2024-03-22T14:47:47;13.90;;;9.50;;
3781;SDS011;6881;49.962;7.718;2024-03-22T14:50:12;12.93;;;9.40;;
3781;SDS011;6881;49.962;7.718;2024-03-22T14:52:37;13.33;;;10.80;;